createdAt,value
2018-02-17T00:00:31.211Z,99.50
2018-02-17T00:02:58.792Z,99.46
2018-02-17T00:05:26.643Z,99.08
2018-02-17T00:07:54.185Z,98.81
2018-02-17T00:10:21.834Z,99.38
2018-02-17T00:12:49.555Z,99.56
2018-02-17T00:15:17.107Z,99.85
2018-02-17T00:17:45.119Z,100.00
2018-02-17T00:20:12.841Z,100.00
2018-02-17T00:22:40.697Z,100.00
2018-02-17T00:25:08.443Z,99.90
2018-02-17T00:27:36.005Z,99.90
2018-02-17T00:30:03.721Z,99.58
2018-02-17T00:32:31.319Z,99.60
2018-02-17T00:34:59.651Z,99.78
2018-02-17T00:37:27.168Z,99.86
2018-02-17T00:39:55.011Z,100.00
2018-02-17T00:42:22.732Z,100.00
2018-02-17T00:44:50.489Z,100.00
2018-02-17T00:47:18.162Z,99.95
2018-02-17T00:49:45.796Z,99.87
2018-02-17T00:52:14.301Z,99.74
2018-02-17T00:54:42.068Z,99.68
2018-02-17T00:57:10.495Z,99.70
2018-02-17T00:59:38.163Z,99.65
2018-02-17T01:02:05.721Z,99.72
2018-02-17T01:04:33.633Z,99.76
2018-02-17T01:07:01.257Z,99.31
2018-02-17T01:09:29.197Z,98.70
2018-02-17T01:11:56.747Z,99.23
2018-02-17T01:14:24.289Z,99.35
2018-02-17T01:16:51.861Z,99.09
2018-02-17T01:19:19.536Z,99.26
2018-02-17T01:21:47.236Z,99.72
2018-02-17T01:24:14.948Z,99.83
2018-02-17T01:26:42.636Z,99.86
2018-02-17T01:29:10.521Z,99.77
2018-02-17T01:31:38.421Z,99.81
2018-02-17T01:34:06.007Z,99.65
2018-02-17T01:36:33.662Z,99.74
2018-02-17T01:39:01.214Z,99.84
2018-02-17T01:41:28.749Z,99.89
2018-02-17T01:43:56.438Z,99.67
2018-02-17T01:46:24.369Z,99.37
2018-02-17T01:48:51.989Z,99.34
2018-02-17T01:51:19.696Z,99.11
2018-02-17T01:53:47.698Z,99.13
2018-02-17T01:56:15.355Z,98.84
2018-02-17T01:58:43.337Z,98.74
2018-02-17T02:01:11.249Z,98.64
2018-02-17T02:03:39.078Z,98.39
2018-02-17T02:06:06.723Z,97.54
2018-02-17T02:08:34.273Z,98.52
2018-02-17T02:11:02.174Z,99.07
2018-02-17T02:13:29.847Z,99.51
2018-02-17T02:15:57.613Z,99.78
2018-02-17T02:18:25.156Z,99.75
2018-02-17T02:20:52.684Z,99.62
2018-02-17T02:23:21.052Z,99.42
2018-02-17T02:25:48.720Z,99.06
2018-02-17T02:28:16.646Z,99.29
2018-02-17T02:30:44.292Z,99.28
2018-02-17T02:33:11.908Z,99.56
2018-02-17T02:35:39.524Z,99.66
2018-02-17T02:38:07.064Z,99.48
2018-02-17T02:40:34.777Z,99.50
2018-02-17T02:43:02.375Z,99.13
2018-02-17T02:45:29.968Z,98.74
2018-02-17T02:47:57.604Z,99.04
2018-02-17T02:50:25.404Z,99.20
2018-02-17T02:52:53.068Z,99.29
2018-02-17T02:55:20.807Z,99.55
2018-02-17T02:57:48.602Z,99.53
2018-02-17T03:00:16.177Z,99.25
2018-02-17T03:02:43.834Z,99.30
2018-02-17T03:05:11.654Z,99.36
2018-02-17T03:07:39.315Z,98.92
2018-02-17T03:10:07.140Z,99.00
2018-02-17T03:12:34.746Z,99.19
2018-02-17T03:15:02.631Z,98.97
2018-02-17T03:17:30.262Z,98.98
2018-02-17T03:19:57.803Z,99.13
2018-02-17T03:22:25.415Z,99.10
2018-02-17T03:24:52.959Z,99.15
2018-02-17T03:27:20.661Z,99.14
2018-02-17T03:29:48.300Z,99.21
2018-02-17T03:32:15.832Z,98.92
2018-02-17T03:34:43.371Z,99.10
2018-02-17T03:37:11.115Z,99.06
2018-02-17T03:39:39.490Z,98.91
2018-02-17T03:42:07.087Z,98.37
2018-02-17T03:44:34.760Z,98.35
2018-02-17T03:47:02.408Z,98.49
2018-02-17T03:49:30.165Z,98.76
2018-02-17T03:51:57.935Z,99.41
2018-02-17T03:54:25.615Z,99.63
2018-02-17T03:56:53.268Z,99.84
2018-02-17T03:59:21.038Z,99.84
2018-02-17T04:01:48.702Z,99.84
2018-02-17T04:04:16.325Z,99.83
2018-02-17T04:06:43.943Z,100.00
2018-02-17T04:09:12.386Z,100.00
2018-02-17T04:11:39.978Z,100.00
2018-02-17T04:14:07.601Z,100.00
2018-02-17T04:16:35.170Z,100.00
2018-02-17T04:19:02.777Z,100.00
2018-02-17T04:21:30.371Z,100.00
2018-02-17T04:23:58.049Z,100.00
2018-02-17T04:26:26.369Z,100.00
2018-02-17T04:28:54.498Z,100.00
2018-02-17T04:31:22.143Z,99.96
2018-02-17T04:33:49.784Z,99.75
2018-02-17T04:36:17.322Z,99.41
2018-02-17T04:38:45.129Z,99.08
2018-02-17T04:41:24.884Z,98.71
2018-02-17T04:43:58.141Z,99.00
2018-02-17T04:46:31.441Z,99.23
2018-02-17T04:49:09.058Z,99.20
2018-02-17T04:51:38.845Z,99.24
2018-02-17T04:57:10.167Z,99.02
2018-02-17T04:59:55.884Z,99.17
2018-02-17T05:05:33.833Z,99.74
2018-02-17T05:08:13.513Z,99.76
2018-02-17T05:10:41.095Z,99.88
2018-02-17T05:13:08.728Z,99.83
2018-02-17T05:18:38.918Z,99.58
2018-02-17T05:24:26.141Z,99.57
2018-02-17T05:29:57.725Z,99.58
2018-02-17T05:32:30.294Z,99.39
2018-02-17T05:38:00.303Z,99.43
2018-02-17T05:40:37.937Z,98.96
2018-02-17T05:43:05.543Z,98.60
2018-02-17T05:45:37.592Z,98.15
2018-02-17T05:48:06.204Z,97.85
2018-02-17T05:50:34.242Z,98.12
2018-02-17T05:53:02.046Z,98.44
2018-02-17T05:55:29.679Z,98.50
2018-02-17T05:57:57.339Z,98.22
2018-02-17T06:00:24.885Z,98.37
2018-02-17T06:02:52.536Z,98.59
2018-02-17T06:05:20.069Z,98.36
2018-02-17T06:07:47.903Z,98.46
2018-02-17T06:10:15.526Z,97.44
2018-02-17T06:12:43.829Z,96.89
2018-02-17T06:15:11.701Z,96.59
2018-02-17T06:17:39.287Z,95.45
2018-02-17T06:20:07.091Z,95.21
2018-02-17T06:22:34.725Z,94.58
2018-02-17T06:25:02.348Z,93.42
2018-02-17T06:27:30.666Z,91.91
2018-02-17T06:29:58.190Z,91.96
2018-02-17T06:32:25.749Z,91.46
2018-02-17T06:34:53.385Z,91.63
2018-02-17T06:37:20.960Z,90.29
2018-02-17T06:39:48.660Z,90.26
2018-02-17T06:42:16.233Z,89.70
2018-02-17T06:44:43.885Z,91.70
2018-02-17T06:47:11.419Z,92.05
2018-02-17T06:49:39.086Z,92.47
2018-02-17T06:52:06.611Z,91.10
2018-02-17T06:54:34.307Z,91.18
2018-02-17T06:57:01.870Z,88.44
2018-02-17T06:59:29.559Z,87.27
2018-02-17T07:01:57.459Z,87.66
2018-02-17T07:04:25.055Z,89.55
2018-02-17T07:06:52.606Z,89.78
2018-02-17T07:09:20.134Z,89.23
2018-02-17T07:11:47.723Z,89.63
2018-02-17T07:14:15.303Z,89.61
2018-02-17T07:16:42.917Z,90.68
2018-02-17T07:19:10.563Z,90.67
2018-02-17T07:21:38.166Z,90.83
2018-02-17T07:24:05.713Z,90.91
2018-02-17T07:26:33.366Z,92.18
2018-02-17T07:29:00.899Z,93.59
2018-02-17T07:31:28.647Z,93.69
2018-02-17T07:33:57.071Z,92.83
2018-02-17T07:36:24.607Z,92.45
2018-02-17T07:38:52.143Z,93.53
2018-02-17T07:41:19.887Z,93.65
2018-02-17T07:43:48.253Z,93.04
2018-02-17T07:46:15.793Z,93.18
2018-02-17T07:48:44.148Z,92.51
2018-02-17T07:51:11.892Z,89.22
2018-02-17T07:53:39.426Z,93.98
2018-02-17T07:56:06.963Z,93.42
2018-02-17T07:58:35.166Z,92.37
2018-02-17T08:01:02.807Z,91.86
2018-02-17T08:03:30.479Z,89.87
2018-02-17T08:05:58.138Z,89.38
2018-02-17T08:08:25.674Z,88.01
2018-02-17T08:10:53.278Z,86.83
2018-02-17T08:13:21.138Z,85.81
2018-02-17T08:15:48.767Z,85.20
2018-02-17T08:18:16.380Z,85.74
2018-02-17T08:20:43.908Z,86.29
2018-02-17T08:23:12.179Z,85.47
2018-02-17T08:25:40.005Z,84.25
2018-02-17T08:28:07.589Z,84.28
2018-02-17T08:30:35.195Z,84.86
2018-02-17T08:33:02.897Z,84.66
2018-02-17T08:35:31.367Z,84.17
2018-02-17T08:37:59.103Z,84.00
2018-02-17T08:40:26.732Z,82.83
2018-02-17T08:42:54.388Z,82.57
2018-02-17T08:45:22.166Z,81.38
2018-02-17T08:47:49.862Z,80.56
2018-02-17T08:50:17.685Z,80.32
2018-02-17T08:52:45.227Z,80.88
2018-02-17T08:55:12.934Z,81.13
2018-02-17T08:57:40.717Z,80.94
2018-02-17T09:00:08.314Z,82.63
2018-02-17T09:02:35.860Z,81.40
2018-02-17T09:05:03.596Z,80.14
2018-02-17T09:07:31.285Z,79.73
2018-02-17T09:09:59.096Z,78.52
2018-02-17T09:12:26.790Z,80.15
2018-02-17T09:14:54.319Z,79.73
2018-02-17T09:17:21.981Z,79.39
2018-02-17T09:19:49.516Z,78.93
2018-02-17T09:22:17.136Z,80.58
2018-02-17T09:24:44.801Z,80.05
2018-02-17T09:27:12.319Z,79.98
2018-02-17T09:29:39.919Z,80.78
2018-02-17T09:32:07.655Z,79.02
2018-02-17T09:34:35.261Z,79.13
2018-02-17T09:37:02.830Z,79.67
2018-02-17T09:39:30.396Z,80.89
2018-02-17T09:41:58.135Z,80.04
2018-02-17T09:44:26.017Z,79.79
2018-02-17T09:46:53.613Z,79.23
2018-02-17T09:49:21.390Z,78.38
2018-02-17T09:51:49.586Z,79.12
2018-02-17T09:54:17.238Z,78.32
2018-02-17T09:56:45.075Z,79.96
2018-02-17T09:59:13.276Z,80.54
2018-02-17T10:01:41.336Z,81.34
2018-02-17T10:04:09.117Z,80.82
2018-02-17T10:06:36.648Z,82.55
2018-02-17T10:09:04.627Z,82.02
2018-02-17T10:11:32.235Z,82.85
2018-02-17T10:14:00.506Z,82.19
2018-02-17T10:16:28.205Z,83.15
2018-02-17T10:18:55.731Z,82.62
2018-02-17T10:21:23.276Z,84.59
2018-02-17T10:23:50.896Z,84.89
2018-02-17T10:26:18.822Z,85.19
2018-02-17T10:28:46.435Z,83.98
2018-02-17T10:31:14.057Z,83.60
2018-02-17T10:33:41.940Z,82.45
2018-02-17T10:36:09.528Z,84.35
2018-02-17T10:38:37.410Z,84.80
2018-02-17T10:41:05.302Z,84.40
2018-02-17T10:43:32.928Z,84.25
2018-02-17T10:46:00.533Z,82.60
2018-02-17T10:48:28.130Z,84.02
2018-02-17T10:50:55.842Z,85.36
2018-02-17T10:53:23.595Z,86.03
2018-02-17T10:55:51.303Z,87.52
2018-02-17T10:58:18.844Z,88.14
2018-02-17T11:00:46.431Z,88.40
2018-02-17T11:03:14.083Z,88.31
2018-02-17T11:05:41.704Z,88.70
2018-02-17T11:08:09.230Z,89.99
2018-02-17T11:10:37.546Z,89.16
2018-02-17T11:13:10.391Z,90.32
2018-02-17T11:15:43.668Z,90.09
2018-02-17T11:18:11.298Z,89.58
2018-02-17T11:20:39.256Z,89.26
2018-02-17T11:23:07.191Z,89.67
2018-02-17T11:25:34.766Z,91.45
2018-02-17T11:28:02.339Z,92.23
2018-02-17T11:30:30.046Z,92.04
2018-02-17T11:32:57.916Z,91.03
2018-02-17T11:35:25.466Z,90.04
2018-02-17T11:37:53.015Z,91.03
2018-02-17T11:40:21.741Z,90.96
2018-02-17T11:42:49.304Z,90.97
2018-02-17T11:45:17.050Z,91.06
2018-02-17T11:47:44.674Z,91.08
2018-02-17T11:50:12.564Z,91.04
2018-02-17T11:52:40.089Z,91.58
2018-02-17T11:55:07.671Z,90.61
2018-02-17T11:57:36.137Z,90.63
2018-02-17T12:00:03.863Z,90.75
2018-02-17T12:02:33.181Z,90.76
2018-02-17T12:05:00.776Z,90.63
2018-02-17T12:07:28.562Z,90.75
2018-02-17T12:09:56.301Z,89.80
2018-02-17T12:12:23.968Z,91.09
2018-02-17T12:14:51.803Z,91.05
2018-02-17T12:17:19.514Z,91.52
2018-02-17T12:19:47.178Z,91.46
2018-02-17T12:22:14.773Z,92.17
2018-02-17T12:24:42.486Z,91.92
2018-02-17T12:27:10.467Z,91.92
2018-02-17T12:29:38.132Z,91.15
2018-02-17T12:32:05.760Z,90.92
2018-02-17T12:34:33.565Z,90.38
2018-02-17T12:37:01.257Z,89.90
2018-02-17T12:39:29.524Z,89.98
2018-02-17T12:41:57.109Z,90.42
2018-02-17T12:44:24.865Z,91.10
2018-02-17T12:46:52.697Z,92.51
2018-02-17T12:49:20.209Z,92.84
2018-02-17T12:51:47.884Z,93.41
2018-02-17T12:54:15.453Z,92.74
2018-02-17T12:56:43.024Z,92.70
2018-02-17T12:59:10.924Z,92.29
2018-02-17T13:01:38.603Z,90.62
2018-02-17T13:04:06.275Z,90.59
2018-02-17T13:06:34.148Z,90.43
2018-02-17T13:09:01.663Z,91.31
2018-02-17T13:11:29.426Z,91.24
2018-02-17T13:13:56.958Z,91.12
2018-02-17T13:16:24.523Z,92.61
2018-02-17T13:18:52.052Z,93.10
2018-02-17T13:21:19.586Z,92.68
2018-02-17T13:23:47.224Z,92.28
2018-02-17T13:26:15.107Z,92.02
2018-02-17T13:28:42.695Z,91.43
2018-02-17T13:31:11.278Z,91.42
2018-02-17T13:33:38.942Z,90.92
2018-02-17T13:36:06.516Z,90.61
2018-02-17T13:38:34.104Z,90.29
2018-02-17T13:41:01.732Z,91.01
2018-02-17T13:43:29.314Z,89.58
2018-02-17T13:45:56.914Z,90.01
2018-02-17T13:48:24.459Z,90.73
2018-02-17T13:50:52.207Z,90.96
2018-02-17T13:53:20.494Z,91.52
2018-02-17T13:55:48.123Z,91.92
2018-02-17T13:58:15.750Z,91.58
2018-02-17T14:00:43.798Z,90.45
2018-02-17T14:03:12.322Z,91.35
2018-02-17T14:05:40.208Z,91.32
2018-02-17T14:08:07.874Z,90.56
2018-02-17T14:10:35.528Z,90.68
2018-02-17T14:13:03.352Z,90.97
2018-02-17T14:15:30.996Z,91.27
2018-02-17T14:17:58.562Z,92.25
2018-02-17T14:20:26.388Z,92.14
2018-02-17T14:22:53.997Z,90.19
2018-02-17T14:25:21.662Z,90.16
2018-02-17T14:27:49.478Z,89.76
2018-02-17T14:30:17.089Z,89.20
2018-02-17T14:32:44.748Z,89.08
2018-02-17T14:35:12.569Z,88.57
2018-02-17T14:37:40.123Z,87.58
2018-02-17T14:40:07.704Z,88.10
2018-02-17T14:42:35.327Z,88.22
2018-02-17T14:45:03.063Z,87.79
2018-02-17T14:47:30.922Z,89.12
2018-02-17T14:49:58.664Z,88.92
2018-02-17T14:52:27.114Z,88.81
2018-02-17T14:54:54.898Z,89.07
2018-02-17T14:57:22.593Z,88.60
2018-02-17T14:59:50.261Z,89.04
2018-02-17T15:02:17.963Z,89.02
2018-02-17T15:04:45.543Z,88.67
2018-02-17T15:07:13.997Z,87.66
2018-02-17T15:09:41.538Z,88.31
2018-02-17T15:12:09.193Z,88.95
2018-02-17T15:14:36.740Z,89.40
2018-02-17T15:17:04.470Z,89.99
2018-02-17T15:19:32.019Z,90.15
2018-02-17T15:21:59.729Z,89.00
2018-02-17T15:24:27.283Z,89.08
2018-02-17T15:26:55.118Z,88.98
2018-02-17T15:29:22.932Z,89.50
2018-02-17T15:31:50.690Z,88.56
2018-02-17T15:34:18.355Z,89.78
2018-02-17T15:36:45.879Z,90.73
2018-02-17T15:39:13.692Z,90.29
2018-02-17T15:41:41.249Z,89.56
2018-02-17T15:44:09.062Z,89.53
2018-02-17T15:46:36.874Z,91.25
2018-02-17T15:49:04.593Z,91.26
2018-02-17T15:51:32.299Z,90.71
2018-02-17T15:54:00.024Z,91.64
2018-02-17T15:56:27.819Z,91.17
2018-02-17T15:58:55.468Z,92.07
2018-02-17T16:01:23.504Z,91.90
2018-02-17T16:03:51.049Z,91.77
2018-02-17T16:06:18.743Z,92.45
2018-02-17T16:08:46.323Z,92.69
2018-02-17T16:11:14.010Z,92.68
2018-02-17T16:13:41.893Z,94.35
2018-02-17T16:16:09.664Z,94.60
2018-02-17T16:18:37.258Z,94.80
2018-02-17T16:21:05.084Z,94.67
2018-02-17T16:23:32.712Z,93.30
2018-02-17T16:26:00.294Z,93.40
2018-02-17T16:28:27.908Z,93.54
2018-02-17T16:30:55.466Z,93.82
2018-02-17T16:33:23.493Z,94.55
2018-02-17T16:35:51.316Z,94.79
2018-02-17T16:38:18.991Z,94.75
2018-02-17T16:40:46.575Z,94.99
2018-02-17T16:43:14.429Z,94.89
2018-02-17T16:45:42.124Z,93.81
2018-02-17T16:48:09.656Z,93.81
2018-02-17T16:50:37.196Z,94.27
2018-02-17T16:53:05.413Z,94.55
2018-02-17T16:55:33.434Z,94.69
2018-02-17T16:58:01.620Z,94.49
2018-02-17T17:00:29.166Z,94.64
2018-02-17T17:02:56.830Z,94.84
2018-02-17T17:05:24.859Z,95.08
2018-02-17T17:07:52.520Z,94.74
2018-02-17T17:10:20.164Z,94.80
2018-02-17T17:12:48.524Z,94.51
2018-02-17T17:15:16.427Z,94.72
2018-02-17T17:17:44.059Z,94.80
2018-02-17T17:20:11.712Z,95.11
2018-02-17T17:22:39.362Z,95.38
2018-02-17T17:25:06.975Z,95.60
2018-02-17T17:27:34.786Z,95.88
2018-02-17T17:30:03.357Z,95.60
2018-02-17T17:32:31.287Z,95.49
2018-02-17T17:35:00.022Z,95.55
2018-02-17T17:37:28.199Z,95.20
2018-02-17T17:39:55.793Z,95.73
2018-02-17T17:42:23.649Z,95.86
2018-02-17T17:44:52.079Z,95.64
2018-02-17T17:47:19.689Z,94.92
2018-02-17T17:49:47.286Z,94.76
2018-02-17T17:52:14.948Z,95.34
2018-02-17T17:54:42.775Z,95.74
2018-02-17T17:57:10.421Z,96.35
2018-02-17T17:59:38.005Z,96.42
2018-02-17T18:02:05.669Z,95.48
2018-02-17T18:04:33.643Z,95.66
2018-02-17T18:07:01.588Z,95.80
2018-02-17T18:09:29.481Z,95.29
2018-02-17T18:11:57.296Z,95.49
2018-02-17T18:14:24.887Z,95.07
2018-02-17T18:16:52.611Z,95.14
2018-02-17T18:19:20.548Z,94.94
2018-02-17T18:21:48.121Z,95.32
2018-02-17T18:24:15.894Z,95.61
2018-02-17T18:26:43.522Z,96.00
2018-02-17T18:29:11.204Z,96.21
2018-02-17T18:31:38.959Z,96.25
2018-02-17T18:34:06.504Z,96.03
2018-02-17T18:36:34.367Z,96.22
2018-02-17T18:39:01.970Z,95.89
2018-02-17T18:41:29.730Z,95.04
2018-02-17T18:43:57.425Z,95.20
2018-02-17T18:46:25.204Z,95.85
2018-02-17T18:48:52.758Z,95.54
2018-02-17T18:51:20.370Z,94.49
2018-02-17T18:53:48.775Z,94.79
2018-02-17T18:56:16.339Z,95.11
2018-02-17T18:58:43.930Z,95.49
2018-02-17T19:01:11.657Z,95.57
2018-02-17T19:03:39.320Z,95.31
2018-02-17T19:06:06.968Z,95.18
2018-02-17T19:08:34.552Z,95.20
2018-02-17T19:11:03.376Z,95.39
2018-02-17T19:13:31.060Z,95.91
2018-02-17T19:15:58.882Z,95.48
2018-02-17T19:18:26.719Z,95.90
2018-02-17T19:20:54.330Z,95.33
2018-02-17T19:23:21.857Z,95.53
2018-02-17T19:25:49.471Z,95.90
2018-02-17T19:28:17.327Z,95.15
2018-02-17T19:30:45.088Z,94.96
2018-02-17T19:33:12.919Z,95.25
2018-02-17T19:35:40.619Z,94.85
2018-02-17T19:38:08.174Z,94.82
2018-02-17T19:40:35.788Z,95.09
2018-02-17T19:43:03.391Z,95.37
2018-02-17T19:45:30.941Z,94.98
2018-02-17T19:47:58.489Z,94.43
2018-02-17T19:50:26.143Z,94.69
2018-02-17T19:52:53.684Z,95.00
2018-02-17T19:55:21.279Z,95.69
2018-02-17T19:57:48.861Z,95.33
2018-02-17T20:00:16.409Z,94.99
2018-02-17T20:02:44.155Z,94.63
2018-02-17T20:05:11.759Z,94.42
2018-02-17T20:07:39.311Z,94.59
2018-02-17T20:10:06.920Z,94.03
2018-02-17T20:12:34.771Z,94.14
2018-02-17T20:15:02.301Z,94.61
2018-02-17T20:17:29.850Z,94.74
2018-02-17T20:19:57.500Z,94.85
2018-02-17T20:22:25.360Z,95.02
2018-02-17T20:24:53.141Z,95.64
2018-02-17T20:27:20.755Z,95.67
2018-02-17T20:29:48.449Z,95.70
2018-02-17T20:32:16.058Z,96.32
2018-02-17T20:34:44.376Z,96.01
2018-02-17T20:37:12.279Z,95.97
2018-02-17T20:39:39.875Z,95.63
2018-02-17T20:42:07.480Z,95.80
2018-02-17T20:44:35.003Z,95.36
2018-02-17T20:47:03.135Z,94.93
2018-02-17T20:49:30.688Z,94.94
2018-02-17T20:51:58.521Z,95.13
2018-02-17T20:54:26.198Z,95.59
2018-02-17T20:56:54.039Z,95.73
2018-02-17T20:59:21.587Z,95.80
2018-02-17T21:01:49.319Z,95.55
2018-02-17T21:04:17.118Z,95.47
2018-02-17T21:06:44.762Z,94.98
2018-02-17T21:09:12.309Z,95.59
2018-02-17T21:11:39.906Z,95.93
2018-02-17T21:14:07.565Z,95.79
2018-02-17T21:16:35.150Z,95.71
2018-02-17T21:19:02.791Z,95.62
2018-02-17T21:21:30.415Z,95.36
2018-02-17T21:23:58.131Z,95.72
2018-02-17T21:26:25.850Z,95.59
2018-02-17T21:28:53.545Z,95.28
2018-02-17T21:31:21.143Z,95.70
2018-02-17T21:33:48.688Z,95.33
2018-02-17T21:36:16.273Z,95.30
2018-02-17T21:38:43.890Z,95.45
2018-02-17T21:41:11.416Z,95.33
2018-02-17T21:43:39.825Z,95.38
2018-02-17T21:46:07.386Z,96.16
2018-02-17T21:48:35.074Z,96.01
2018-02-17T21:51:02.928Z,96.02
2018-02-17T21:53:30.473Z,95.99
2018-02-17T21:55:58.078Z,95.50
2018-02-17T21:58:25.718Z,95.41
2018-02-17T22:00:54.169Z,95.86
2018-02-17T22:03:21.705Z,95.52
2018-02-17T22:05:49.384Z,95.22
2018-02-17T22:08:16.925Z,95.49
2018-02-17T22:10:44.449Z,94.78
2018-02-17T22:13:12.190Z,95.29
2018-02-17T22:15:39.749Z,95.72
2018-02-17T22:18:07.560Z,95.95
2018-02-17T22:20:35.320Z,96.06
2018-02-17T22:23:02.899Z,95.82
2018-02-17T22:25:30.585Z,95.60
2018-02-17T22:27:58.119Z,95.41
2018-02-17T22:30:25.794Z,95.69
2018-02-17T22:32:53.694Z,95.90
2018-02-17T22:35:21.297Z,95.87
2018-02-17T22:37:48.974Z,95.86
2018-02-17T22:40:16.655Z,96.45
2018-02-17T22:42:44.318Z,96.51
2018-02-17T22:45:11.989Z,96.28
2018-02-17T22:47:39.864Z,96.53
2018-02-17T22:50:07.458Z,96.66
2018-02-17T22:52:35.780Z,97.22
2018-02-17T22:55:03.458Z,97.32
2018-02-17T22:57:31.076Z,97.36
2018-02-17T22:59:58.701Z,97.42
2018-02-17T23:02:26.411Z,97.64
2018-02-17T23:04:53.940Z,97.54
2018-02-17T23:07:21.513Z,97.77
2018-02-17T23:09:49.224Z,97.71
2018-02-17T23:12:17.088Z,97.76
2018-02-17T23:14:44.709Z,97.86
2018-02-17T23:17:12.455Z,97.88
2018-02-17T23:19:40.151Z,97.85
2018-02-17T23:22:07.874Z,97.89
2018-02-17T23:24:35.490Z,97.71
2018-02-17T23:27:03.111Z,97.90
2018-02-17T23:29:30.858Z,98.42
2018-02-17T23:31:58.411Z,98.54
2018-02-17T23:34:25.918Z,98.40
2018-02-17T23:36:53.460Z,98.79
2018-02-17T23:39:21.088Z,98.94
2018-02-17T23:41:48.970Z,98.91
2018-02-17T23:44:16.518Z,98.74
2018-02-17T23:46:44.273Z,98.82
2018-02-17T23:49:12.032Z,99.09
2018-02-17T23:51:39.695Z,99.16
2018-02-17T23:54:07.506Z,99.13
2018-02-17T23:56:35.220Z,99.01
2018-02-17T23:59:02.873Z,99.10
